Time;durP1;ratioP1;P1;durP2;ratioP2;P2;SDS_P1;SDS_P2;PMS_P1;PMS_P2;Temp;Humidity;BMP_temperature;BMP_pressure;BME280_temperature;BME280_humidity;BME280_pressure;Samples;Min_cycle;Max_cycle;Signal;HPM_P1;HPM_P2
2022/10/12 00:02:12;;;;;;;;;;;;;;;16.29;63.00;101190.28;5361538;32;35280;-78
2022/10/12 00:05:14;;;;;;;;;;;;;;;16.12;64.28;101177.88;5342238;32;34941;-65
2022/10/12 00:08:16;;;;;;;;;;;;;;;15.85;65.40;101184.53;5359459;32;34311;-66
2022/10/12 00:11:25;;;;;;;;;;;;;;;14.91;70.12;101190.59;5342431;32;34105;-66
2022/10/12 00:14:27;;;;;;;;;;;;;;;14.60;71.71;101194.59;5341547;32;44631;-79
2022/10/12 00:17:29;;;;;;;;;;;;;;;14.90;71.09;101194.19;5359272;32;34282;-66
2022/10/12 00:20:30;;;;;;;;;;;;;;;14.81;70.40;101186.63;5327924;32;35971;-79
2022/10/12 00:23:33;;;;;;;;;;;;;;;14.53;71.70;101195.78;5345525;32;34805;-78
2022/10/12 00:26:34;;;;;;;;;;;;;;;14.64;72.01;101195.31;5333745;32;35039;-65
2022/10/12 00:29:36;;;;;;;;;;;;;;;14.29;72.75;101188.84;5354437;32;34764;-66
2022/10/12 00:32:38;;;;;;;;;;;;;;;14.73;70.93;101200.22;5341238;32;36585;-79
2022/10/12 00:35:40;;;;;;;;;;;;;;;14.79;71.02;101191.16;5326791;32;34289;-75
2022/10/12 00:38:42;;;;;;;;;;;;;;;14.65;70.85;101201.47;5358392;32;34073;-65
2022/10/12 00:41:43;;;;;;;;;;;;;;;14.40;72.27;101210.41;5343105;32;35336;-74
2022/10/12 00:44:46;;;;;;;;;;;;;;;14.90;70.98;101199.47;5357754;32;34071;-65
2022/10/12 00:47:49;;;;;;;;;;;;;;;14.76;71.24;101207.16;5327386;32;35066;-79
2022/10/12 00:50:51;;;;;;;;;;;;;;;16.40;63.96;101197.72;5356981;32;35520;-78
2022/10/12 00:53:54;;;;;;;;;;;;;;;15.01;68.46;101206.97;5343345;32;35011;-78
2022/10/12 00:56:56;;;;;;;;;;;;;;;14.62;71.31;101205.97;5341890;32;45299;-77
2022/10/12 01:00:00;;;;;;;;;;;;;;;14.61;70.72;101191.00;5355308;32;34449;-65
2022/10/12 01:03:02;;;;;;;;;;;;;;;14.61;71.59;101204.22;5341576;32;35702;-66
2022/10/12 01:06:04;;;;;;;;;;;;;;;14.78;71.28;101197.38;5345609;32;34977;-75
2022/10/12 01:09:06;;;;;;;;;;;;;;;14.88;70.77;101194.25;5339961;32;34888;-69
2022/10/12 01:12:08;;;;;;;;;;;;;;;15.86;66.87;101187.09;5342419;32;34677;-78
2022/10/12 01:15:10;;;;;;;;;;;;;;;15.86;66.42;101191.56;5354287;32;33595;-65
2022/10/12 01:18:18;;;;;;;;;;;;;;;15.59;66.99;101194.56;5341529;32;34731;-65
2022/10/12 01:21:20;;;;;;;;;;;;;;;15.00;69.32;101210.50;5357496;32;34148;-65
2022/10/12 01:24:43;;;;;;;;;;;;;;;15.71;67.21;101203.72;5319085;32;34077;-65
2022/10/12 01:27:45;;;;;;;;;;;;;;;15.59;67.25;101205.16;5332448;32;34720;-65
2022/10/12 01:30:47;;;;;;;;;;;;;;;15.38;69.11;101208.78;5323324;32;34387;-79
2022/10/12 01:33:50;;;;;;;;;;;;;;;14.89;69.59;101206.56;5342090;32;34333;-78
2022/10/12 01:36:58;;;;;;;;;;;;;;;14.90;70.51;101216.22;5344534;32;35278;-79
2022/10/12 01:40:02;;;;;;;;;;;;;;;15.21;69.52;101211.34;5340983;32;43638;-66
2022/10/12 01:43:04;;;;;;;;;;;;;;;15.59;67.15;101213.09;5356680;32;35297;-66
2022/10/12 01:46:06;;;;;;;;;;;;;;;15.44;67.92;101216.44;5342938;32;35141;-66
2022/10/12 01:49:08;;;;;;;;;;;;;;;15.39;68.15;101215.78;5356790;32;35073;-66
2022/10/12 01:52:29;;;;;;;;;;;;;;;14.70;70.87;101221.53;5340183;32;35039;-66
2022/10/12 01:55:46;;;;;;;;;;;;;;;14.97;69.84;101219.47;5339523;32;45368;-64
2022/10/12 01:59:00;;;;;;;;;;;;;;;14.73;70.39;101231.09;5343479;32;35482;-65
2022/10/12 02:02:08;;;;;;;;;;;;;;;14.50;71.52;101222.38;5342161;32;44516;-65
2022/10/12 02:05:13;;;;;;;;;;;;;;;14.81;70.27;101221.94;5354351;32;34319;-66
2022/10/12 02:08:23;;;;;;;;;;;;;;;14.91;70.45;101225.00;5348223;32;35424;-78
2022/10/12 02:11:25;;;;;;;;;;;;;;;15.11;68.92;101219.69;5341396;32;34454;-79
2022/10/12 02:14:34;;;;;;;;;;;;;;;15.35;67.81;101211.59;5342699;32;45217;-79
2022/10/12 02:17:36;;;;;;;;;;;;;;;14.94;69.12;101222.25;5340409;32;35654;-79
2022/10/12 02:20:38;;;;;;;;;;;;;;;15.53;66.88;101216.03;5342999;32;34756;-79
2022/10/12 02:23:40;;;;;;;;;;;;;;;14.20;72.23;101221.81;5327752;32;35309;-74
2022/10/12 02:26:42;;;;;;;;;;;;;;;14.68;70.99;101225.12;5336145;32;34846;-78
2022/10/12 02:29:45;;;;;;;;;;;;;;;14.34;72.66;101222.09;5334447;32;35354;-65
2022/10/12 02:33:03;;;;;;;;;;;;;;;14.50;72.82;101217.09;5324598;32;34189;-78
2022/10/12 02:36:08;;;;;;;;;;;;;;;14.20;73.87;101211.25;5342468;32;44543;-66
2022/10/12 02:39:20;;;;;;;;;;;;;;;14.56;72.46;101216.81;5327439;32;35359;-65
2022/10/12 02:42:29;;;;;;;;;;;;;;;14.93;71.23;101217.00;5351890;32;35444;-78
2022/10/12 02:45:51;;;;;;;;;;;;;;;14.45;73.08;101215.53;5345438;32;34351;-65
2022/10/12 02:48:53;;;;;;;;;;;;;;;14.67;72.30;101213.69;5325480;32;35422;-79
2022/10/12 02:51:55;;;;;;;;;;;;;;;14.83;71.28;101217.41;5359642;32;34813;-79
2022/10/12 02:54:57;;;;;;;;;;;;;;;15.21;69.23;101208.72;5319410;32;45880;-78
2022/10/12 02:57:59;;;;;;;;;;;;;;;14.55;70.81;101217.72;5357137;32;35618;-78
2022/10/12 03:01:01;;;;;;;;;;;;;;;14.66;71.71;101213.78;5327152;32;37511;-66
2022/10/12 03:04:03;;;;;;;;;;;;;;;14.99;68.90;101235.25;5341187;32;35880;-66
2022/10/12 03:07:04;;;;;;;;;;;;;;;14.33;72.61;101227.47;5357264;32;34835;-78
2022/10/12 03:10:06;;;;;;;;;;;;;;;14.13;73.39;101222.12;5334694;32;35525;-66
2022/10/12 03:13:08;;;;;;;;;;;;;;;14.01;74.66;101219.06;5358253;32;35632;-66
2022/10/12 03:16:10;;;;;;;;;;;;;;;15.03;70.50;101221.84;5343691;32;34381;-78
2022/10/12 03:19:12;;;;;;;;;;;;;;;14.70;70.80;101229.47;5342519;32;34394;-65
2022/10/12 03:22:14;;;;;;;;;;;;;;;14.58;71.99;101230.84;5344408;32;34808;-74
2022/10/12 03:25:16;;;;;;;;;;;;;;;14.69;72.10;101230.37;5318444;32;35254;-78
2022/10/12 03:28:18;;;;;;;;;;;;;;;15.27;68.92;101219.03;5357447;32;34194;-78
2022/10/12 03:31:20;;;;;;;;;;;;;;;14.41;72.51;101232.44;5339482;32;36853;-79
2022/10/12 03:34:22;;;;;;;;;;;;;;;14.55;71.48;101235.38;5359362;32;35024;-66
2022/10/12 03:37:23;;;;;;;;;;;;;;;15.34;68.48;101225.75;5341612;32;34131;-80
2022/10/12 03:40:25;;;;;;;;;;;;;;;15.24;69.09;101219.16;5362865;32;37648;-65
2022/10/12 03:43:27;;;;;;;;;;;;;;;15.14;69.87;101224.88;5339191;32;44563;-67
2022/10/12 03:46:29;;;;;;;;;;;;;;;15.23;69.42;101222.72;5345414;32;34377;-66
2022/10/12 03:49:31;;;;;;;;;;;;;;;14.42;72.52;101227.06;5356848;32;34773;-79
2022/10/12 03:52:33;;;;;;;;;;;;;;;15.30;68.54;101222.38;5342918;32;34365;-74
2022/10/12 03:55:34;;;;;;;;;;;;;;;14.79;71.37;101233.50;5332993;32;35201;-66
2022/10/12 03:58:36;;;;;;;;;;;;;;;15.43;68.00;101220.88;5329724;32;35579;-65
2022/10/12 04:01:38;;;;;;;;;;;;;;;15.02;69.73;101225.41;5359071;32;35458;-78
2022/10/12 04:04:40;;;;;;;;;;;;;;;15.74;66.57;101227.44;5338634;32;35380;-66
2022/10/12 04:07:42;;;;;;;;;;;;;;;15.46;66.51;101219.91;5326228;32;35141;-65
2022/10/12 04:10:44;;;;;;;;;;;;;;;14.53;72.18;101224.88;5348784;32;34172;-65
2022/10/12 04:13:46;;;;;;;;;;;;;;;14.98;69.53;101217.66;5341983;32;34101;-78
2022/10/12 04:16:47;;;;;;;;;;;;;;;15.55;67.07;101216.81;5359569;32;34884;-78
2022/10/12 04:19:49;;;;;;;;;;;;;;;15.17;69.40;101208.84;5341487;32;34156;-65
2022/10/12 04:22:51;;;;;;;;;;;;;;;15.34;68.42;101215.16;5360875;32;34588;-65
2022/10/12 04:25:53;;;;;;;;;;;;;;;15.30;67.75;101222.38;5307779;32;34854;-67
2022/10/12 04:28:55;;;;;;;;;;;;;;;15.09;68.55;101223.34;5337677;32;34741;-79
2022/10/12 04:31:57;;;;;;;;;;;;;;;14.72;70.49;101234.69;5355835;32;47275;-65
2022/10/12 04:34:59;;;;;;;;;;;;;;;14.96;70.34;101222.19;5342023;32;35421;-79
2022/10/12 04:38:01;;;;;;;;;;;;;;;14.71;70.29;101223.25;5359786;32;35419;-80
2022/10/12 04:41:02;;;;;;;;;;;;;;;15.13;69.51;101212.56;5327545;32;34984;-65
2022/10/12 04:44:05;;;;;;;;;;;;;;;15.00;68.81;101224.59;5356673;32;35314;-79
2022/10/12 04:47:07;;;;;;;;;;;;;;;14.64;70.97;101224.44;5343978;32;35544;-79
2022/10/12 04:50:09;;;;;;;;;;;;;;;14.67;71.06;101229.56;5342879;32;34348;-66
2022/10/12 04:53:11;;;;;;;;;;;;;;;15.28;68.74;101221.59;5359638;32;35467;-79
2022/10/12 04:56:13;;;;;;;;;;;;;;;14.92;69.87;101223.22;5339975;32;34285;-66
2022/10/12 04:59:14;;;;;;;;;;;;;;;15.43;68.08;101225.31;5357194;32;34350;-66
2022/10/12 05:02:16;;;;;;;;;;;;;;;15.52;67.51;101230.22;5342122;32;35370;-66
2022/10/12 05:05:18;;;;;;;;;;;;;;;14.56;70.80;101227.41;5343494;32;33722;-65
2022/10/12 05:08:20;;;;;;;;;;;;;;;15.46;68.10;101225.19;5356874;32;34268;-80
2022/10/12 05:11:22;;;;;;;;;;;;;;;14.95;69.95;101237.19;5342652;32;34410;-78
2022/10/12 05:14:24;;;;;;;;;;;;;;;14.18;73.82;101241.31;5357548;32;34358;-66
2022/10/12 05:17:26;;;;;;;;;;;;;;;15.37;69.26;101246.78;5328900;32;43214;-79
2022/10/12 05:20:28;;;;;;;;;;;;;;;15.80;66.71;101235.09;5358685;32;34806;-79
2022/10/12 05:23:29;;;;;;;;;;;;;;;15.58;68.01;101239.66;5329573;32;35047;-66
2022/10/12 05:26:31;;;;;;;;;;;;;;;15.38;68.12;101248.50;5346210;32;36623;-65
2022/10/12 05:29:33;;;;;;;;;;;;;;;15.51;68.00;101248.81;5348386;32;35289;-68
2022/10/12 05:32:35;;;;;;;;;;;;;;;16.00;66.46;101247.41;5340070;32;34280;-86
2022/10/12 05:35:38;;;;;;;;;;;;;;;16.15;65.56;101246.66;5360782;32;34228;-83
2022/10/12 05:38:44;;;;;;;;;;;;;;;15.95;66.34;101239.66;5336289;32;34278;-91
2022/10/12 05:41:46;;;;;;;;;;;;;;;15.98;65.96;101249.28;5348947;32;34437;-71
2022/10/12 05:44:48;;;;;;;;;;;;;;;16.12;66.07;101245.97;5341319;32;34418;-67
2022/10/12 05:47:50;;;;;;;;;;;;;;;16.35;65.12;101242.16;5348952;32;33924;-75
2022/10/12 05:50:53;;;;;;;;;;;;;;;17.04;61.89;101251.03;5332696;32;34322;-76
2022/10/12 05:53:55;;;;;;;;;;;;;;;17.43;60.38;101249.00;5340257;32;34341;-76
2022/10/12 05:56:57;;;;;;;;;;;;;;;17.47;59.26;101245.25;5351634;32;44333;-69
2022/10/12 05:59:59;;;;;;;;;;;;;;;16.57;61.21;101257.91;5340843;32;34340;-92
2022/10/12 06:03:01;;;;;;;;;;;;;;;16.27;63.21;101257.63;5342509;32;34222;-70
2022/10/12 06:06:05;;;;;;;;;;;;;;;17.12;60.76;101250.63;5337819;32;34520;-68
2022/10/12 06:09:07;;;;;;;;;;;;;;;17.02;60.65;101266.19;5342028;32;37598;-76
2022/10/12 06:12:09;;;;;;;;;;;;;;;17.44;59.87;101269.31;5346881;32;35502;-79
2022/10/12 06:15:11;;;;;;;;;;;;;;;17.39;58.13;101280.22;5352824;32;35567;-85
2022/10/12 06:18:13;;;;;;;;;;;;;;;17.83;56.50;101275.13;5355716;32;34428;-79
2022/10/12 06:21:17;;;;;;;;;;;;;;;16.90;59.30;101277.44;5342156;32;35087;-84
2022/10/12 06:24:34;;;;;;;;;;;;;;;16.52;59.70;101282.00;5334877;32;46271;-70
2022/10/12 06:27:36;;;;;;;;;;;;;;;17.74;54.33;101273.00;5338116;32;34502;-75
2022/10/12 06:30:38;;;;;;;;;;;;;;;19.09;50.63;101271.44;5334709;32;34271;-72
2022/10/12 06:33:40;;;;;;;;;;;;;;;19.63;48.72;101265.47;5353123;32;34676;-74
2022/10/12 06:36:42;;;;;;;;;;;;;;;19.15;49.89;101279.03;5333757;32;34554;-74
2022/10/12 06:39:44;;;;;;;;;;;;;;;19.83;48.04;101272.19;5352684;32;35281;-77
2022/10/12 06:42:47;;;;;;;;;;;;;;;18.84;50.79;101274.69;5343646;32;34284;-76
2022/10/12 06:45:49;;;;;;;;;;;;;;;20.10;47.41;101273.13;5357000;32;34238;-74
2022/10/12 06:48:51;;;;;;;;;;;;;;;19.48;48.27;101278.78;5341022;32;35272;-75
2022/10/12 06:51:53;;;;;;;;;;;;;;;20.19;46.86;101274.31;5346710;32;35513;-87
2022/10/12 06:54:54;;;;;;;;;;;;;;;19.81;47.96;101287.44;5352892;32;34224;-75
2022/10/12 06:57:56;;;;;;;;;;;;;;;20.33;46.79;101276.94;5329277;32;44530;-89
2022/10/12 07:01:04;;;;;;;;;;;;;;;20.12;46.33;101287.22;5354772;32;35478;-71
2022/10/12 07:04:06;;;;;;;;;;;;;;;19.96;46.92;101286.47;5337969;32;35938;-81
2022/10/12 07:07:08;;;;;;;;;;;;;;;20.62;45.47;101288.41;5338708;32;34639;-82
2022/10/12 07:10:10;;;;;;;;;;;;;;;21.00;44.39;101283.12;5338775;32;35499;-74
2022/10/12 07:13:11;;;;;;;;;;;;;;;19.79;48.16;101295.56;5342119;32;34931;-74
2022/10/12 07:16:14;;;;;;;;;;;;;;;19.39;48.96;101289.16;5345094;32;34099;-70
2022/10/12 07:19:15;;;;;;;;;;;;;;;20.83;45.03;101291.44;5340345;32;34128;-70
2022/10/12 07:22:17;;;;;;;;;;;;;;;19.26;49.00;101299.72;5353361;32;35365;-78
2022/10/12 07:25:21;;;;;;;;;;;;;;;19.57;49.41;101289.81;5321447;32;34641;-71
2022/10/12 07:28:23;;;;;;;;;;;;;;;19.02;50.05;101293.22;5351105;32;35542;-74
2022/10/12 07:31:25;;;;;;;;;;;;;;;18.69;51.31;101293.41;5343432;32;34307;-71
2022/10/12 07:34:27;;;;;;;;;;;;;;;18.45;52.20;101290.31;5336896;32;44798;-70
2022/10/12 07:37:28;;;;;;;;;;;;;;;18.93;51.19;101292.81;5352959;32;34463;-70
2022/10/12 07:40:31;;;;;;;;;;;;;;;20.34;47.50;101289.31;5344171;32;35313;-86
2022/10/12 07:43:32;;;;;;;;;;;;;;;19.64;48.87;101285.84;5363110;32;37352;-71
2022/10/12 07:46:34;;;;;;;;;;;;;;;18.38;52.42;101293.34;5346344;32;36091;-87
2022/10/12 07:49:36;;;;;;;;;;;;;;;19.06;50.65;101287.56;5354298;32;34329;-91
2022/10/12 07:52:38;;;;;;;;;;;;;;;18.57;52.20;101293.12;5328932;32;34385;-80
2022/10/12 07:55:40;;;;;;;;;;;;;;;18.76;52.25;101284.97;5326474;32;35395;-77
2022/10/12 07:58:52;;;;;;;;;;;;;;;20.31;47.40;101286.00;5355625;32;34620;-76
2022/10/12 08:01:54;;;;;;;;;;;;;;;18.30;52.56;101284.09;5327552;32;34458;-80
2022/10/12 08:04:56;;;;;;;;;;;;;;;18.78;51.08;101280.38;5354215;32;45607;-84
2022/10/12 08:07:59;;;;;;;;;;;;;;;19.70;48.72;101282.78;5350049;32;35519;-85
2022/10/12 08:11:01;;;;;;;;;;;;;;;18.17;53.07;101291.91;5340652;32;35959;-81
2022/10/12 08:14:03;;;;;;;;;;;;;;;20.26;47.41;101284.50;5347923;32;35475;-81
2022/10/12 08:17:05;;;;;;;;;;;;;;;20.48;46.38;101285.75;5358206;32;35443;-74
2022/10/12 08:20:07;;;;;;;;;;;;;;;19.12;49.81;101297.00;5340020;32;34348;-83
2022/10/12 08:23:09;;;;;;;;;;;;;;;19.13;49.34;101296.09;5337607;32;34892;-79
2022/10/12 08:26:12;;;;;;;;;;;;;;;19.37;48.42;101289.25;5342717;32;33711;-80
2022/10/12 08:29:14;;;;;;;;;;;;;;;18.48;50.88;101288.31;5341585;32;34014;-82
2022/10/12 08:32:16;;;;;;;;;;;;;;;19.52;48.42;101282.13;5351703;32;34569;-85
2022/10/12 08:35:18;;;;;;;;;;;;;;;20.49;46.55;101285.69;5354412;32;35604;-78
2022/10/12 08:38:20;;;;;;;;;;;;;;;20.85;44.99;101281.50;5345029;32;34751;-86
2022/10/12 08:41:25;;;;;;;;;;;;;;;20.93;44.86;101279.16;5361010;32;34721;-79
2022/10/12 08:44:30;;;;;;;;;;;;;;;21.09;44.36;101287.84;5333975;32;45942;-79
2022/10/12 08:47:43;;;;;;;;;;;;;;;19.49;47.70;101285.81;5327386;32;33275;-77
2022/10/12 08:50:46;;;;;;;;;;;;;;;19.59;47.57;101277.28;5344362;32;33526;-74
2022/10/12 08:53:51;;;;;;;;;;;;;;;20.94;44.21;101269.34;5343279;32;32820;-75
2022/10/12 08:56:53;;;;;;;;;;;;;;;20.66;44.64;101271.19;5354587;32;35193;-76
2022/10/12 08:59:55;;;;;;;;;;;;;;;21.14;43.58;101271.50;5323976;32;44466;-75
2022/10/12 09:03:12;;;;;;;;;;;;;;;20.77;44.56;101279.34;5356849;32;35817;-75
2022/10/12 09:06:18;;;;;;;;;;;;;;;21.79;42.32;101284.72;5343015;32;35317;-78
2022/10/12 09:09:32;;;;;;;;;;;;;;;21.89;41.99;101284.91;5338306;32;32827;-77
2022/10/12 09:12:34;;;;;;;;;;;;;;;21.51;42.56;101284.97;5350107;32;44659;-80
2022/10/12 09:15:37;;;;;;;;;;;;;;;20.26;45.48;101283.63;5305281;32;839824;-74
2022/10/12 09:18:40;;;;;;;;;;;;;;;19.46;47.45;101295.84;5356938;32;35617;-76
2022/10/12 09:21:42;;;;;;;;;;;;;;;20.64;45.49;101283.81;5343543;32;36464;-82
2022/10/12 09:24:44;;;;;;;;;;;;;;;20.00;47.08;101288.84;5321281;32;33965;-84
2022/10/12 09:27:46;;;;;;;;;;;;;;;21.37;43.89;101280.59;5341314;32;34387;-79
2022/10/12 09:31:00;;;;;;;;;;;;;;;21.44;43.38;101289.03;5342443;32;35236;-72
2022/10/12 09:34:04;;;;;;;;;;;;;;;20.68;45.37;101288.00;5340709;32;44409;-76
2022/10/12 09:37:06;;;;;;;;;;;;;;;20.65;45.63;101287.31;5325453;32;34229;-78
2022/10/12 09:40:25;;;;;;;;;;;;;;;20.32;45.39;101288.56;5356300;32;34103;-84
2022/10/12 09:43:26;;;;;;;;;;;;;;;21.04;44.47;101281.94;5346290;32;44501;-79
2022/10/12 09:46:39;;;;;;;;;;;;;;;21.80;42.39;101277.53;5340295;32;34822;-79
2022/10/12 09:49:42;;;;;;;;;;;;;;;21.26;43.96;101284.00;5326103;32;34307;-78
2022/10/12 09:52:44;;;;;;;;;;;;;;;20.98;44.59;101293.06;5346386;32;34350;-89
2022/10/12 09:55:56;;;;;;;;;;;;;;;21.69;42.70;101289.00;5341607;32;34787;-74
2022/10/12 09:59:00;;;;;;;;;;;;;;;22.30;41.20;101278.38;5341700;32;45317;-75
2022/10/12 10:02:14;;;;;;;;;;;;;;;21.25;43.10;101276.06;5342719;32;34261;-77
2022/10/12 10:05:30;;;;;;;;;;;;;;;22.15;41.76;101275.88;5346622;32;35639;-72
2022/10/12 10:08:38;;;;;;;;;;;;;;;21.55;43.21;101281.13;5341639;32;44922;-75
2022/10/12 10:11:40;;;;;;;;;;;;;;;21.15;43.93;101272.34;5356960;32;35241;-80
2022/10/12 10:14:43;;;;;;;;;;;;;;;21.13;44.70;101279.62;5341709;32;35209;-84
2022/10/12 10:17:47;;;;;;;;;;;;;;;22.73;40.52;101281.34;5337771;32;34348;-79
2022/10/12 10:20:50;;;;;;;;;;;;;;;22.98;39.73;101275.00;5325160;32;34196;-82
2022/10/12 10:23:55;;;;;;;;;;;;;;;22.41;40.89;101281.09;5328120;32;34663;-77
2022/10/12 10:26:58;;;;;;;;;;;;;;;21.45;43.18;101275.59;5335735;32;44417;-79
2022/10/12 10:30:07;;;;;;;;;;;;;;;20.97;44.53;101285.16;5340620;32;34638;-74
2022/10/12 10:33:30;;;;;;;;;;;;;;;22.56;41.30;101274.63;5349649;32;44707;-76
2022/10/12 10:36:32;;;;;;;;;;;;;;;23.00;40.35;101280.28;5345717;32;35461;-75
2022/10/12 10:39:43;;;;;;;;;;;;;;;22.32;41.44;101279.12;5369633;32;35531;-93
2022/10/12 10:42:48;;;;;;;;;;;;;;;21.85;42.57;101281.59;5358579;32;34273;-79
2022/10/12 10:45:50;;;;;;;;;;;;;;;22.97;40.14;101282.19;5312229;32;34040;-81
2022/10/12 10:48:55;;;;;;;;;;;;;;;21.33;43.70;101282.66;5337477;32;34452;-77
2022/10/12 10:51:57;;;;;;;;;;;;;;;21.67;42.39;101280.25;5343012;32;44889;-77
2022/10/12 10:55:08;;;;;;;;;;;;;;;20.82;44.79;101268.34;5351593;32;34617;-78
2022/10/12 10:58:31;;;;;;;;;;;;;;;21.07;44.44;101272.88;5335908;32;36614;-77
2022/10/12 11:01:36;;;;;;;;;;;;;;;22.52;39.66;101265.09;5342137;32;44858;-74
2022/10/12 11:04:38;;;;;;;;;;;;;;;23.09;38.74;101261.63;5351444;32;35594;-74
2022/10/12 11:07:46;;;;;;;;;;;;;;;23.06;38.66;101267.25;5327894;32;35766;-79
2022/10/12 11:11:02;;;;;;;;;;;;;;;21.82;41.30;101262.22;5337653;32;35024;-80
2022/10/12 11:14:08;;;;;;;;;;;;;;;21.45;41.89;101264.03;5340467;32;44700;-73
2022/10/12 11:17:12;;;;;;;;;;;;;;;21.88;40.81;101264.47;5341057;32;34355;-74
2022/10/12 11:20:17;;;;;;;;;;;;;;;21.57;41.59;101255.97;5342328;32;34214;-72
2022/10/12 11:23:30;;;;;;;;;;;;;;;21.18;42.92;101261.41;5330502;32;35395;-72
2022/10/12 11:26:35;;;;;;;;;;;;;;;22.38;40.04;101260.78;5341952;32;44258;-75
2022/10/12 11:29:37;;;;;;;;;;;;;;;23.23;38.42;101253.34;5337939;32;34121;-79
2022/10/12 11:32:50;;;;;;;;;;;;;;;21.93;40.62;101259.63;5329884;32;35393;-74
2022/10/12 11:35:53;;;;;;;;;;;;;;;21.06;43.31;101258.66;5346806;32;33688;-72
2022/10/12 11:39:02;;;;;;;;;;;;;;;21.94;41.09;101257.81;5328495;32;44937;-78
2022/10/12 11:42:10;;;;;;;;;;;;;;;22.98;38.87;101254.41;5353022;32;33412;-80
2022/10/12 11:45:29;;;;;;;;;;;;;;;21.74;41.23;101253.91;5340140;32;44357;-79
2022/10/12 11:48:35;;;;;;;;;;;;;;;21.16;43.11;101258.88;5309791;32;36935;-76
2022/10/12 11:51:37;;;;;;;;;;;;;;;22.88;39.68;101244.53;5355109;32;35324;-83
2022/10/12 11:54:47;;;;;;;;;;;;;;;23.10;38.46;101239.19;5334414;32;34110;-78
2022/10/12 11:57:48;;;;;;;;;;;;;;;23.03;39.01;101243.34;5339721;32;35329;-76
2022/10/12 12:00:57;;;;;;;;;;;;;;;22.57;39.65;101237.97;5331397;32;35899;-79
2022/10/12 12:04:08;;;;;;;;;;;;;;;21.45;41.58;101243.50;5351651;32;44583;-74
2022/10/12 12:07:40;;;;;;;;;;;;;;;21.76;41.25;101235.91;5354850;32;47270;-79
2022/10/12 12:10:43;;;;;;;;;;;;;;;21.59;41.33;101229.13;5338543;32;34020;-74
2022/10/12 12:13:45;;;;;;;;;;;;;;;22.14;40.83;101233.13;5349404;32;34412;-77
2022/10/12 12:16:47;;;;;;;;;;;;;;;22.53;39.84;101226.59;5344005;32;33005;-76
2022/10/12 12:19:50;;;;;;;;;;;;;;;22.33;40.20;101230.78;5343222;32;32514;-83
2022/10/12 12:22:55;;;;;;;;;;;;;;;21.16;43.01;101229.47;5348330;32;35324;-75
2022/10/12 12:26:09;;;;;;;;;;;;;;;21.90;41.63;101227.75;5326598;32;45044;-86
2022/10/12 12:29:24;;;;;;;;;;;;;;;22.70;39.82;101222.66;5355633;32;35194;-78
2022/10/12 12:32:38;;;;;;;;;;;;;;;21.30;42.66;101231.19;5338284;32;45073;-78
2022/10/12 12:35:49;;;;;;;;;;;;;;;22.66;39.32;101215.81;5354850;32;34494;-81
2022/10/12 12:38:52;;;;;;;;;;;;;;;21.84;41.43;101220.19;5338239;32;34838;-77
2022/10/12 12:41:58;;;;;;;;;;;;;;;22.56;39.53;101218.34;5342920;32;36920;-76
2022/10/12 12:45:22;;;;;;;;;;;;;;;23.32;37.89;101218.75;5364349;32;46167;-82
2022/10/12 12:48:46;;;;;;;;;;;;;;;21.21;42.24;101223.78;5317769;32;34946;-78
2022/10/12 12:51:47;;;;;;;;;;;;;;;22.06;40.62;101217.63;5355941;32;35182;-80
2022/10/12 12:55:02;;;;;;;;;;;;;;;21.10;42.60;101217.38;5327617;32;35903;-74
2022/10/12 12:58:03;;;;;;;;;;;;;;;20.93;43.14;101215.03;5339730;32;46385;-73
2022/10/12 13:01:24;;;;;;;;;;;;;;;21.35;42.58;101210.34;5349149;32;34245;-78
2022/10/12 13:04:45;;;;;;;;;;;;;;;21.24;42.79;101213.72;5323396;32;44704;-84
2022/10/12 13:07:50;;;;;;;;;;;;;;;22.81;39.05;101209.28;5335955;32;36328;-71
2022/10/12 13:10:58;;;;;;;;;;;;;;;22.73;39.00;101203.66;5339140;32;35120;-71
2022/10/12 13:14:18;;;;;;;;;;;;;;;21.25;42.17;101214.56;5334134;32;44748;-79
2022/10/12 13:17:46;;;;;;;;;;;;;;;21.65;41.70;101201.09;5343855;32;34343;-73
2022/10/12 13:20:48;;;;;;;;;;;;;;;21.74;40.35;101203.06;5346757;32;35462;-74
2022/10/12 13:23:52;;;;;;;;;;;;;;;20.71;42.92;101204.09;5321627;32;32947;-80
2022/10/12 13:26:55;;;;;;;;;;;;;;;22.67;39.07;101196.97;5342854;32;34555;-80
2022/10/12 13:30:05;;;;;;;;;;;;;;;21.75;40.53;101194.94;5328318;32;44490;-78
2022/10/12 13:33:10;;;;;;;;;;;;;;;22.96;38.46;101188.50;5339665;32;34308;-74
2022/10/12 13:36:12;;;;;;;;;;;;;;;21.36;41.66;101202.19;5345555;32;35482;-77
2022/10/12 13:39:15;;;;;;;;;;;;;;;21.79;41.25;101191.06;5354958;32;35513;-75
2022/10/12 13:42:17;;;;;;;;;;;;;;;21.76;41.23;101193.09;5347358;32;34852;-79
2022/10/12 13:45:19;;;;;;;;;;;;;;;21.36;41.80;101206.69;5328155;32;34141;-83
2022/10/12 13:48:22;;;;;;;;;;;;;;;22.35;40.10;101195.87;5356269;32;35455;-79
2022/10/12 13:51:48;;;;;;;;;;;;;;;21.28;42.50;101206.34;5341143;32;34514;-72
2022/10/12 13:54:50;;;;;;;;;;;;;;;21.81;41.04;101191.81;5355740;32;35181;-74
2022/10/12 13:57:52;;;;;;;;;;;;;;;22.45;39.72;101194.19;5351860;32;34246;-75
2022/10/12 14:00:54;;;;;;;;;;;;;;;23.18;37.89;101187.66;5331989;32;33084;-76
2022/10/12 14:04:03;;;;;;;;;;;;;;;22.22;39.71;101190.59;5345048;32;44905;-76
2022/10/12 14:07:06;;;;;;;;;;;;;;;21.81;40.42;101185.59;5344178;32;34146;-76
2022/10/12 14:10:15;;;;;;;;;;;;;;;21.18;42.19;101192.78;5355404;32;36108;-77
2022/10/12 14:13:35;;;;;;;;;;;;;;;22.61;39.10;101191.22;5342889;32;35330;-80
2022/10/12 14:16:37;;;;;;;;;;;;;;;22.07;39.48;101187.19;5353352;32;34443;-72
2022/10/12 14:19:39;;;;;;;;;;;;;;;21.18;41.47;101189.25;5341966;32;36424;-70
2022/10/12 14:22:45;;;;;;;;;;;;;;;21.42;41.79;101184.84;5339661;32;34252;-74
2022/10/12 14:25:53;;;;;;;;;;;;;;;22.21;39.63;101177.31;5331860;32;35328;-76
2022/10/12 14:28:56;;;;;;;;;;;;;;;21.92;40.58;101174.97;5325506;32;34224;-73
2022/10/12 14:32:05;;;;;;;;;;;;;;;21.63;40.88;101180.62;5340281;32;44799;-73
2022/10/12 14:35:10;;;;;;;;;;;;;;;21.35;41.35;101176.44;5331766;32;34076;-73
2022/10/12 14:38:47;;;;;;;;;;;;;;;21.79;40.77;101168.81;5327220;32;34245;-78
2022/10/12 14:41:50;;;;;;;;;;;;;;;22.16;39.90;101177.69;5305030;32;34274;-76
2022/10/12 14:44:52;;;;;;;;;;;;;;;21.12;42.63;101170.97;5333072;32;35671;-72
2022/10/12 14:47:54;;;;;;;;;;;;;;;21.92;40.88;101166.94;5333629;32;35548;-72
2022/10/12 14:50:56;;;;;;;;;;;;;;;21.68;41.03;101168.75;5337382;32;36662;-74
2022/10/12 14:54:02;;;;;;;;;;;;;;;22.36;39.72;101171.66;5338757;32;34543;-76
2022/10/12 14:57:12;;;;;;;;;;;;;;;21.87;40.31;101171.78;5349937;32;34246;-75
2022/10/12 15:00:18;;;;;;;;;;;;;;;22.16;39.89;101167.81;5320783;32;35648;-72
2022/10/12 15:03:20;;;;;;;;;;;;;;;21.04;42.63;101174.19;5349150;32;35978;-76
2022/10/12 15:06:22;;;;;;;;;;;;;;;21.12;43.64;101174.50;5335479;32;35787;-75
2022/10/12 15:09:24;;;;;;;;;;;;;;;20.86;43.23;101176.31;5346484;32;36663;-72
2022/10/12 15:12:28;;;;;;;;;;;;;;;21.19;42.45;101169.56;5340973;32;45183;-72
2022/10/12 15:15:41;;;;;;;;;;;;;;;21.43;42.50;101170.53;5339538;32;35439;-73
2022/10/12 15:18:42;;;;;;;;;;;;;;;22.05;40.75;101165.06;5354752;32;34518;-76
2022/10/12 15:21:44;;;;;;;;;;;;;;;21.85;41.19;101163.00;5347954;32;34643;-75
2022/10/12 15:24:47;;;;;;;;;;;;;;;21.97;40.79;101175.50;5330254;32;35449;-78
2022/10/12 15:27:49;;;;;;;;;;;;;;;21.93;40.93;101167.78;5324765;32;34633;-73
2022/10/12 15:30:51;;;;;;;;;;;;;;;21.76;41.44;101167.19;5337656;32;34984;-76
2022/10/12 15:34:13;;;;;;;;;;;;;;;21.09;43.18;101162.22;5349488;32;36185;-73
2022/10/12 15:37:15;;;;;;;;;;;;;;;21.40;43.49;101157.38;5338827;32;34610;-77
2022/10/12 15:40:18;;;;;;;;;;;;;;;21.48;43.52;101164.84;5354310;32;36405;-73
2022/10/12 15:43:20;;;;;;;;;;;;;;;21.31;43.82;101166.91;5337414;32;34050;-72
2022/10/12 15:46:22;;;;;;;;;;;;;;;21.63;44.00;101169.91;5358086;32;34556;-76
2022/10/12 15:49:25;;;;;;;;;;;;;;;21.21;44.60;101163.16;5339688;32;36754;-76